createdAt,value
2019-01-21T00:01:26.419Z,100914.13
2019-01-21T00:06:29.055Z,100914.98
2019-01-21T00:11:31.738Z,100910.19
2019-01-21T00:16:34.438Z,100917.08
2019-01-21T00:21:37.038Z,100915.75
2019-01-21T00:26:39.638Z,100919.30
2019-01-21T00:31:42.199Z,100926.38
2019-01-21T00:36:44.779Z,100924.29
2019-01-21T00:41:48.498Z,100922.56
2019-01-21T00:46:51.157Z,100928.82
2019-01-21T00:51:53.924Z,100933.13
2019-01-21T00:56:56.561Z,100920.53
2019-01-21T01:01:59.036Z,100923.62
2019-01-21T01:07:01.676Z,100932.81
2019-01-21T01:12:04.578Z,100924.33
2019-01-21T01:17:07.149Z,100928.44
2019-01-21T01:22:09.577Z,100931.50
2019-01-21T01:27:11.946Z,100924.94
2019-01-21T01:32:14.447Z,100930.23
2019-01-21T01:37:16.898Z,100931.27
2019-01-21T01:42:20.406Z,100936.65
2019-01-21T01:47:22.982Z,100933.09
2019-01-21T01:52:25.588Z,100932.59
2019-01-21T01:57:28.138Z,100917.55
2019-01-21T02:02:30.678Z,100922.29
2019-01-21T02:07:33.269Z,100920.02
2019-01-21T02:12:45.449Z,100932.57
2019-01-21T02:17:51.996Z,100921.16
2019-01-21T02:22:57.499Z,100920.64
2019-01-21T02:28:18.184Z,100907.80
2019-01-21T02:33:44.301Z,100907.47
2019-01-21T02:38:59.414Z,100899.73
2019-01-21T02:44:20.337Z,100903.80
2019-01-21T02:49:52.527Z,100901.84
2019-01-21T02:55:19.089Z,100900.34
2019-01-21T03:00:34.028Z,100899.13
2019-01-21T03:05:50.196Z,100899.58
2019-01-21T03:11:05.436Z,100894.29
2019-01-21T03:16:24.691Z,100897.75
2019-01-21T03:21:49.168Z,100902.99
2019-01-21T03:26:56.621Z,100897.31
2019-01-21T03:32:17.938Z,100887.61
2019-01-21T03:37:49.247Z,100891.17
2019-01-21T03:42:58.667Z,100884.59
2019-01-21T03:53:51.200Z,100872.69
2019-01-21T03:59:13.152Z,100875.76
2019-01-21T04:04:44.183Z,100870.03
2019-01-21T04:09:59.009Z,100881.94
2019-01-21T04:15:16.092Z,100872.17
2019-01-21T04:20:33.204Z,100854.43
2019-01-21T04:25:49.178Z,100858.74
2019-01-21T04:31:10.188Z,100859.67
2019-01-21T04:36:51.513Z,100866.58
2019-01-21T04:42:07.129Z,100868.27
2019-01-21T04:47:25.294Z,100869.59
2019-01-21T04:52:43.244Z,100872.95
2019-01-21T04:58:11.343Z,100873.44
2019-01-21T05:03:35.083Z,100871.67
2019-01-21T05:08:54.254Z,100875.11
2019-01-21T05:14:11.137Z,100874.03
2019-01-21T05:19:32.258Z,100864.25
2019-01-21T05:24:49.229Z,100871.39
2019-01-21T05:30:12.432Z,100882.84
2019-01-21T05:35:41.563Z,100879.84
2019-01-21T05:40:57.080Z,100879.00
2019-01-21T05:46:26.395Z,100879.78
2019-01-21T05:51:52.104Z,100887.59
2019-01-21T05:57:13.263Z,100888.30
2019-01-21T06:02:39.478Z,100890.03
2019-01-21T06:08:00.269Z,100876.68
2019-01-21T06:13:16.467Z,100866.20
2019-01-21T06:18:34.194Z,100865.14
2019-01-21T06:23:48.533Z,100870.28
2019-01-21T06:29:06.137Z,100865.92
2019-01-21T06:34:37.123Z,100847.37
2019-01-21T06:40:05.263Z,100856.09
2019-01-21T06:45:25.214Z,100855.19
2019-01-21T06:50:47.302Z,100854.39
2019-01-21T06:56:12.288Z,100854.10
2019-01-21T07:01:34.218Z,100857.19
2019-01-21T07:06:53.049Z,100847.02
2019-01-21T07:12:05.808Z,100851.03
2019-01-21T07:34:04.140Z,100835.83
2019-01-21T07:39:35.158Z,100838.42
2019-01-21T07:44:54.757Z,100833.91
2019-01-21T07:50:11.289Z,100836.00
2019-01-21T07:55:27.660Z,100831.97
2019-01-21T08:00:42.526Z,100832.38
2019-01-21T08:05:57.546Z,100827.56
2019-01-21T08:11:15.672Z,100829.52
2019-01-21T08:16:32.747Z,100838.05
2019-01-21T08:22:00.099Z,100833.31
2019-01-21T08:27:18.580Z,100831.15
2019-01-21T08:32:33.306Z,100839.17
2019-01-21T08:37:58.286Z,100841.80
2019-01-21T08:43:22.655Z,100832.07
2019-01-21T08:48:43.101Z,100838.64
2019-01-21T08:54:04.196Z,100836.69
2019-01-21T08:59:13.855Z,100837.89
2019-01-21T09:04:36.426Z,100827.26
2019-01-21T09:09:59.454Z,100821.91
2019-01-21T09:15:14.798Z,100821.89
2019-01-21T09:20:34.694Z,100816.56
2019-01-21T09:25:53.445Z,100814.76
2019-01-21T09:31:14.147Z,100810.29
2019-01-21T09:36:40.896Z,100802.83
2019-01-21T09:41:52.521Z,100801.55
2019-01-21T09:46:53.946Z,100795.46
2019-01-21T09:52:09.238Z,100794.61
2019-01-21T09:57:22.202Z,100792.98
2019-01-21T10:02:34.862Z,100780.06
2019-01-21T10:08:02.934Z,100783.63
2019-01-21T10:13:29.307Z,100777.92
2019-01-21T10:18:45.983Z,100777.66
2019-01-21T10:24:02.198Z,100768.87
2019-01-21T10:29:20.492Z,100768.64
2019-01-21T10:34:46.122Z,100773.77
2019-01-21T10:40:02.812Z,100769.48
2019-01-21T10:45:23.177Z,100767.89
2019-01-21T10:50:46.366Z,100766.91
2019-01-21T10:56:02.835Z,100762.13
2019-01-21T11:01:24.243Z,100763.69
2019-01-21T11:06:45.011Z,100754.19
2019-01-21T11:12:11.771Z,100744.47
2019-01-21T11:17:28.186Z,100726.98
2019-01-21T11:22:37.887Z,100722.55
2019-01-21T11:27:53.377Z,100705.33
2019-01-21T11:33:22.389Z,100692.00
2019-01-21T11:38:38.277Z,100690.33
2019-01-21T11:43:55.126Z,100674.30
2019-01-21T11:49:13.196Z,100665.69
2019-01-21T11:54:31.436Z,100656.59
2019-01-21T11:59:44.177Z,100653.14
2019-01-21T12:04:56.413Z,100647.73
2019-01-21T12:10:28.952Z,100635.56
2019-01-21T12:15:49.534Z,100622.91
2019-01-21T12:21:10.270Z,100607.11
2019-01-21T12:26:25.878Z,100607.28
2019-01-21T12:31:43.165Z,100605.86
2019-01-21T12:36:58.778Z,100592.81
2019-01-21T12:42:14.821Z,100580.21
2019-01-21T12:47:34.136Z,100566.95
2019-01-21T12:52:51.291Z,100549.56
2019-01-21T12:58:14.122Z,100545.56
2019-01-21T13:03:32.206Z,100543.19
2019-01-21T13:08:47.416Z,100527.44
2019-01-21T13:13:59.165Z,100525.41
2019-01-21T13:19:24.877Z,100518.89
2019-01-21T13:24:40.075Z,100507.22
2019-01-21T13:30:08.151Z,100503.08
2019-01-21T13:35:36.183Z,100487.66
2019-01-21T13:41:01.037Z,100478.80
2019-01-21T13:46:31.417Z,100465.80
2019-01-21T13:51:49.266Z,100451.64
2019-01-21T13:57:09.358Z,100435.81
2019-01-21T14:02:21.023Z,100438.75
2019-01-21T14:07:42.221Z,100430.55
2019-01-21T14:13:04.454Z,100413.40
2019-01-21T14:18:26.374Z,100390.70
2019-01-21T14:23:35.910Z,100382.56
2019-01-21T14:28:56.738Z,100375.73
2019-01-21T14:34:08.166Z,100363.14
2019-01-21T14:39:19.615Z,100360.69
2019-01-21T14:44:57.697Z,100351.56
2019-01-21T14:50:11.798Z,100344.84
2019-01-21T14:55:27.259Z,100333.72
2019-01-21T15:00:46.431Z,100325.45
2019-01-21T15:06:01.946Z,100313.50
2019-01-21T15:11:26.037Z,100309.09
2019-01-21T15:16:44.016Z,100312.19
2019-01-21T15:22:09.628Z,100304.41
2019-01-21T15:27:27.343Z,100293.16
2019-01-21T15:32:46.517Z,100282.06
2019-01-21T15:37:59.852Z,100298.89
2019-01-21T15:43:33.609Z,100289.36
2019-01-21T15:48:53.710Z,100279.36
2019-01-21T15:54:01.164Z,100259.38
2019-01-21T15:59:23.016Z,100229.77
2019-01-21T16:04:39.362Z,100224.45
2019-01-21T16:09:53.669Z,100211.13
2019-01-21T16:15:05.719Z,100188.19
2019-01-21T16:20:14.991Z,100185.15
2019-01-21T16:25:32.819Z,100177.06
2019-01-21T16:30:43.410Z,100167.14
2019-01-21T16:36:09.093Z,100151.34
2019-01-21T16:41:26.806Z,100134.98
2019-01-21T16:46:29.452Z,100129.70
2019-01-21T16:51:32.232Z,100104.95
2019-01-21T16:56:34.967Z,100091.58
2019-01-21T17:01:37.898Z,100084.34
2019-01-21T17:06:40.580Z,100087.48
2019-01-21T17:11:43.323Z,100072.56
2019-01-21T17:16:45.952Z,100048.88
2019-01-21T17:21:48.721Z,100032.20
2019-01-21T17:26:51.453Z,100017.14
2019-01-21T17:31:54.266Z,100006.66
2019-01-21T17:36:57.186Z,100000.89
2019-01-21T17:42:00.015Z,99993.26
2019-01-21T17:47:02.552Z,99988.09
2019-01-21T17:52:05.391Z,99981.75
2019-01-21T17:57:07.926Z,99962.73
2019-01-21T18:02:10.627Z,99957.72
2019-01-21T18:07:13.491Z,99931.89
2019-01-21T18:12:16.110Z,99919.09
2019-01-21T18:17:18.963Z,99900.08
2019-01-21T18:22:21.731Z,99891.45
2019-01-21T18:27:24.646Z,99874.55
2019-01-21T18:32:27.352Z,99850.09
2019-01-21T18:37:30.091Z,99848.50
2019-01-21T18:42:32.691Z,99847.67
2019-01-21T18:47:35.250Z,99839.17
2019-01-21T18:52:37.995Z,99833.48
2019-01-21T18:57:40.618Z,99810.44
2019-01-21T19:02:43.413Z,99806.28
2019-01-21T19:07:46.038Z,99794.20
2019-01-21T19:12:49.119Z,99785.53
2019-01-21T19:17:52.992Z,99780.41
2019-01-21T19:22:55.543Z,99761.75
2019-01-21T19:27:58.085Z,99747.55
2019-01-21T19:33:00.714Z,99732.41
2019-01-21T19:38:04.618Z,99716.59
2019-01-21T19:43:07.303Z,99701.95
2019-01-21T19:48:09.873Z,99692.66
2019-01-21T19:53:12.410Z,99677.44
2019-01-21T19:58:15.159Z,99671.32
2019-01-21T20:03:17.719Z,99651.00
2019-01-21T20:08:21.493Z,99629.28
2019-01-21T20:13:24.006Z,99607.59
2019-01-21T20:18:26.569Z,99610.85
2019-01-21T20:23:29.158Z,99605.22
2019-01-21T20:28:31.634Z,99583.58
2019-01-21T20:33:34.119Z,99576.66
2019-01-21T20:38:36.744Z,99555.19
2019-01-21T20:43:39.404Z,99532.66
2019-01-21T20:48:41.921Z,99505.73
2019-01-21T20:53:44.528Z,99497.17
2019-01-21T20:58:47.458Z,99479.45
2019-01-21T21:03:50.024Z,99471.12
2019-01-21T21:08:52.662Z,99443.02
2019-01-21T21:13:55.292Z,99455.55
2019-01-21T21:18:57.729Z,99450.09
2019-01-21T21:24:00.204Z,99487.20
2019-01-21T21:29:02.779Z,99487.22
2019-01-21T21:34:05.353Z,99498.59
2019-01-21T21:39:08.058Z,99499.71
2019-01-21T21:44:10.531Z,99476.69
2019-01-21T21:49:13.074Z,99489.55
2019-01-21T21:54:15.693Z,99483.13
2019-01-21T21:59:18.338Z,99475.09
2019-01-21T22:04:20.823Z,99469.02
2019-01-21T22:09:23.394Z,99461.61
2019-01-21T22:14:25.888Z,99455.95
2019-01-21T22:19:28.365Z,99449.04
2019-01-21T22:24:31.251Z,99454.01
2019-01-21T22:29:33.858Z,99451.92
2019-01-21T22:34:36.348Z,99470.61
2019-01-21T22:39:38.993Z,99465.70
2019-01-21T22:44:41.593Z,99460.98
2019-01-21T22:49:44.239Z,99450.84
2019-01-21T22:54:46.822Z,99436.80
2019-01-21T22:59:49.329Z,99453.90
2019-01-21T23:04:52.042Z,99442.09
2019-01-21T23:09:54.589Z,99440.55
2019-01-21T23:14:57.223Z,99441.37
2019-01-21T23:20:00.069Z,99452.42
2019-01-21T23:25:03.033Z,99450.75
2019-01-21T23:30:08.008Z,99443.28
2019-01-21T23:35:10.804Z,99446.72
2019-01-21T23:40:13.858Z,99456.77
2019-01-21T23:45:16.530Z,99447.00
2019-01-21T23:50:19.229Z,99433.39
2019-01-21T23:55:21.748Z,99437.74
